Time;durP1;ratioP1;P1;durP2;ratioP2;P2;SDS_P1;SDS_P2;PMS_P1;PMS_P2;Temp;Humidity;BMP_temperature;BMP_pressure;BME280_temperature;BME280_humidity;BME280_pressure;Samples;Min_cycle;Max_cycle;Signal;HPM_P1;HPM_P2
2021/01/02 00:00:58;;;;;;;45.77;33.23;;;2.20;99.90;;;;;;5121211;27;20474;-76
2021/01/02 00:03:55;;;;;;;40.63;30.87;;;2.20;99.90;;;;;;5111006;27;20446;-75
2021/01/02 00:06:38;;;;;;;45.50;32.50;;;2.20;99.90;;;;;;5115831;27;20462;-76
2021/01/02 00:09:06;;;;;;;52.80;34.00;;;2.20;99.90;;;;;;5115871;27;20499;-75
2021/01/02 00:11:45;;;;;;;44.80;31.70;;;2.20;99.90;;;;;;5121857;27;20959;-74
2021/01/02 00:14:20;;;;;;;44.07;32.40;;;2.20;99.90;;;;;;5121303;27;20800;-76
2021/01/02 00:17:10;;;;;;;41.63;32.80;;;2.20;99.90;;;;;;5126676;27;20459;-76
2021/01/02 00:20:07;;;;;;;47.00;33.07;;;2.20;99.90;;;;;;5116009;28;20505;-74
2021/01/02 00:22:47;;;;;;;45.57;31.80;;;2.20;99.90;;;;;;5121469;28;20449;-74
2021/01/02 00:25:15;;;;;;;40.70;31.43;;;2.20;99.90;;;;;;5117938;28;20463;-76
2021/01/02 00:28:05;;;;;;;48.90;34.60;;;2.20;99.90;;;;;;5118231;28;20464;-74
2021/01/02 00:30:57;;;;;;;44.77;33.43;;;2.20;99.90;;;;;;5119425;27;20499;-74
2021/01/02 00:33:42;;;;;;;51.80;29.90;;;2.30;99.90;;;;;;5118361;28;20457;-73
2021/01/02 00:36:14;;;;;;;45.03;31.33;;;2.20;99.90;;;;;;5117916;28;20607;-75
2021/01/02 00:38:40;;;;;;;42.83;32.10;;;2.10;99.90;;;;;;5122550;28;20834;-75
2021/01/02 00:41:07;;;;;;;51.27;34.30;;;2.20;99.90;;;;;;5123572;28;20479;-74
2021/01/02 00:43:34;;;;;;;49.60;33.10;;;2.20;99.90;;;;;;5121623;28;20472;-76
2021/01/02 00:46:01;;;;;;;49.03;35.47;;;2.20;99.90;;;;;;5120880;27;20770;-76
2021/01/02 00:48:32;;;;;;;46.87;32.77;;;2.30;99.90;;;;;;5121953;28;20512;-75
2021/01/02 00:51:01;;;;;;;48.40;34.30;;;2.30;99.90;;;;;;5122012;28;20457;-75
2021/01/02 00:53:47;;;;;;;47.60;32.43;;;2.30;99.90;;;;;;5115968;28;20907;-73
2021/01/02 00:56:29;;;;;;;41.97;31.10;;;2.40;99.90;;;;;;5122878;28;20460;-74
2021/01/02 00:59:27;;;;;;;53.73;34.60;;;2.30;99.90;;;;;;5109370;28;20541;-74
2021/01/02 01:02:07;;;;;;;43.60;31.23;;;2.30;99.90;;;;;;5122886;27;20738;-73
2021/01/02 01:05:04;;;;;;;46.97;34.03;;;2.40;99.90;;;;;;5119611;28;20448;-75
2021/01/02 01:07:33;;;;;;;47.67;32.87;;;2.40;99.90;;;;;;5116024;27;20456;-73
2021/01/02 01:10:01;;;;;;;50.73;34.93;;;2.50;99.90;;;;;;5120301;27;20460;-76
2021/01/02 01:12:28;;;;;;;56.40;33.47;;;2.60;99.90;;;;;;5125688;27;20549;-75
2021/01/02 01:14:57;;;;;;;54.90;34.27;;;2.60;99.90;;;;;;5123767;27;20455;-75
2021/01/02 01:17:24;;;;;;;49.03;34.80;;;2.50;99.90;;;;;;5127461;27;20460;-75
2021/01/02 01:19:55;;;;;;;44.07;32.77;;;2.60;99.90;;;;;;5123072;27;20464;-77
2021/01/02 01:22:26;;;;;;;50.10;34.23;;;2.60;99.90;;;;;;5125170;27;20966;-74
2021/01/02 01:25:06;;;;;;;49.60;34.50;;;2.60;99.90;;;;;;5127495;27;20936;-75
2021/01/02 01:27:48;;;;;;;46.77;34.40;;;2.60;99.90;;;;;;5121773;27;20459;-76
2021/01/02 01:30:19;;;;;;;51.47;34.60;;;2.60;99.90;;;;;;5126614;27;20449;-75
2021/01/02 01:33:00;;;;;;;43.87;29.60;;;2.60;99.90;;;;;;5127172;27;20479;-76
2021/01/02 01:35:28;;;;;;;43.03;30.60;;;2.50;99.90;;;;;;5121205;27;20467;-76
2021/01/02 01:37:57;;;;;;;51.47;34.60;;;2.50;99.90;;;;;;5123910;27;20994;-74
2021/01/02 01:40:26;;;;;;;57.17;35.77;;;2.50;99.90;;;;;;5121403;27;20518;-73
2021/01/02 01:43:03;;;;;;;46.50;33.80;;;2.50;99.90;;;;;;5124615;27;20499;-75
2021/01/02 01:46:11;;;;;;;50.03;36.53;;;2.40;99.90;;;;;;5119730;27;20464;-73
2021/01/02 01:48:55;;;;;;;48.43;35.87;;;2.40;99.90;;;;;;5119214;27;20886;-74
2021/01/02 01:51:37;;;;;;;48.73;36.20;;;2.50;99.90;;;;;;5124010;27;20456;-73
2021/01/02 01:54:28;;;;;;;53.60;35.90;;;2.50;99.90;;;;;;5119799;27;20460;-75
2021/01/02 01:57:02;;;;;;;53.10;36.70;;;2.50;99.90;;;;;;5119653;27;20469;-76
2021/01/02 01:59:58;;;;;;;57.10;36.53;;;2.60;99.90;;;;;;5123749;27;20467;-74
2021/01/02 02:03:01;;;;;;;49.87;34.77;;;2.60;99.90;;;;;;5123910;27;20456;-75
2021/01/02 02:05:48;;;;;;;48.90;36.73;;;2.60;99.90;;;;;;5111032;27;20460;-74
2021/01/02 02:08:15;;;;;;;56.93;38.13;;;2.50;99.90;;;;;;5118168;27;20838;-73
2021/01/02 02:10:46;;;;;;;49.90;37.13;;;2.50;99.90;;;;;;5124933;27;20809;-76
2021/01/02 02:13:14;;;;;;;47.17;35.67;;;2.50;99.90;;;;;;5125860;27;20468;-76
2021/01/02 02:15:48;;;;;;;52.80;35.03;;;2.50;99.90;;;;;;5125405;27;20511;-76
2021/01/02 02:18:18;;;;;;;49.57;34.37;;;2.50;99.90;;;;;;5122928;27;20471;-73
2021/01/02 02:20:49;;;;;;;51.33;35.40;;;2.50;99.90;;;;;;5122992;27;20457;-74
2021/01/02 02:23:16;;;;;;;58.57;38.67;;;2.40;99.90;;;;;;5119713;27;20540;-76
2021/01/02 02:26:00;;;;;;;62.17;39.50;;;2.40;99.90;;;;;;5122170;27;20505;-75
2021/01/02 02:29:10;;;;;;;57.57;37.03;;;2.40;99.90;;;;;;5120222;27;20480;-74
2021/01/02 02:31:43;;;;;;;53.87;38.00;;;2.50;99.90;;;;;;5121378;27;20455;-74
2021/01/02 02:34:11;;;;;;;52.10;34.53;;;2.40;99.90;;;;;;5126214;27;20486;-74
2021/01/02 02:36:38;;;;;;;52.27;33.90;;;2.50;99.90;;;;;;5125834;27;20962;-75
2021/01/02 02:39:07;;;;;;;50.77;34.10;;;2.50;99.90;;;;;;5122293;27;20460;-74
2021/01/02 02:41:40;;;;;;;50.50;34.37;;;2.50;99.90;;;;;;5116318;27;20488;-76
2021/01/02 02:44:09;;;;;;;49.87;33.67;;;2.40;99.90;;;;;;5124213;27;20464;-72
2021/01/02 02:46:41;;;;;;;47.73;32.90;;;2.50;99.90;;;;;;5125962;27;20464;-75
2021/01/02 02:49:10;;;;;;;50.40;34.77;;;2.40;99.90;;;;;;5119704;27;20487;-73
2021/01/02 02:51:48;;;;;;;50.73;34.40;;;2.40;99.90;;;;;;5115729;27;20461;-74
2021/01/02 02:54:16;;;;;;;49.30;33.43;;;2.30;99.90;;;;;;5122447;27;20487;-75
2021/01/02 02:56:44;;;;;;;51.60;34.93;;;2.40;99.90;;;;;;5117441;27;20456;-74
2021/01/02 02:59:12;;;;;;;50.37;33.87;;;2.30;99.90;;;;;;5121175;27;21014;-76
2021/01/02 03:01:39;;;;;;;53.17;36.47;;;2.10;99.90;;;;;;5126272;27;20465;-74
2021/01/02 03:04:06;;;;;;;47.40;33.20;;;2.20;99.90;;;;;;5117273;27;20487;-74
2021/01/02 03:06:33;;;;;;;47.67;32.47;;;2.30;99.90;;;;;;5123081;27;20962;-73
2021/01/02 03:08:59;;;;;;;52.50;33.37;;;2.30;99.90;;;;;;5126767;27;20564;-74
2021/01/02 03:11:26;;;;;;;46.73;33.17;;;2.20;99.90;;;;;;5123772;27;21005;-74
2021/01/02 03:13:56;;;;;;;53.50;34.40;;;2.20;99.90;;;;;;5123378;27;20460;-76
2021/01/02 03:16:23;;;;;;;46.87;34.70;;;2.20;99.90;;;;;;5123546;27;20469;-74
2021/01/02 03:18:50;;;;;;;49.27;35.50;;;2.20;99.90;;;;;;5124324;27;20806;-74
2021/01/02 03:21:16;;;;;;;55.23;35.93;;;2.20;99.90;;;;;;5121771;27;20949;-75
2021/01/02 03:23:47;;;;;;;46.37;34.93;;;2.30;99.90;;;;;;5119834;27;20457;-74
2021/01/02 03:26:17;;;;;;;43.77;32.17;;;2.30;99.90;;;;;;5126370;27;20452;-73
2021/01/02 03:28:50;;;;;;;52.87;35.20;;;2.40;99.90;;;;;;5121594;27;20526;-74
2021/01/02 03:31:17;;;;;;;53.50;33.50;;;2.30;99.90;;;;;;5118877;27;20465;-76
2021/01/02 03:33:44;;;;;;;41.80;32.20;;;2.30;99.90;;;;;;5118831;27;20560;-75
2021/01/02 03:36:11;;;;;;;47.50;33.30;;;2.30;99.90;;;;;;5122850;27;20465;-72
2021/01/02 03:38:41;;;;;;;52.30;33.40;;;2.40;99.90;;;;;;5121286;27;20490;-75
2021/01/02 03:41:08;;;;;;;44.93;33.63;;;2.30;99.90;;;;;;5122224;27;20487;-75
2021/01/02 03:43:37;;;;;;;47.07;33.37;;;2.40;99.90;;;;;;5120865;27;20457;-74
2021/01/02 03:46:04;;;;;;;45.23;32.70;;;2.30;99.90;;;;;;5125315;27;20450;-74
2021/01/02 03:48:31;;;;;;;54.73;34.07;;;2.40;99.90;;;;;;5120366;27;20484;-75
2021/01/02 03:50:58;;;;;;;53.37;32.73;;;2.40;99.90;;;;;;5121513;27;20797;-76
2021/01/02 03:53:25;;;;;;;47.17;32.53;;;2.30;99.90;;;;;;5121645;27;20560;-76
2021/01/02 03:55:53;;;;;;;42.50;31.83;;;2.30;99.90;;;;;;5124535;27;20465;-74
2021/01/02 03:58:20;;;;;;;41.43;33.70;;;2.30;99.90;;;;;;5121214;27;20955;-75
2021/01/02 04:00:46;;;;;;;52.10;34.30;;;2.40;99.90;;;;;;5130020;27;20935;-75
2021/01/02 04:03:12;;;;;;;49.20;33.97;;;2.40;99.90;;;;;;5121694;27;20882;-75
2021/01/02 04:05:45;;;;;;;52.33;33.00;;;2.40;99.90;;;;;;5121929;27;20514;-74
2021/01/02 04:08:11;;;;;;;50.53;32.23;;;2.50;99.90;;;;;;5121293;27;20910;-74
2021/01/02 04:10:38;;;;;;;46.97;33.20;;;2.50;99.90;;;;;;5125319;27;20577;-76
2021/01/02 04:13:05;;;;;;;48.23;33.80;;;2.50;99.90;;;;;;5122384;27;20472;-76
2021/01/02 04:15:31;;;;;;;48.70;32.63;;;2.40;99.90;;;;;;5126723;27;21017;-75
2021/01/02 04:17:58;;;;;;;49.20;33.33;;;2.50;99.90;;;;;;5124040;27;20465;-73
2021/01/02 04:20:26;;;;;;;50.03;32.80;;;2.50;99.90;;;;;;5123831;27;20476;-73
2021/01/02 04:22:53;;;;;;;49.70;33.90;;;2.60;99.90;;;;;;5123696;28;20492;-74
2021/01/02 04:25:23;;;;;;;43.10;30.90;;;2.70;99.90;;;;;;5122052;28;20467;-73
2021/01/02 04:27:49;;;;;;;47.90;33.23;;;2.70;99.90;;;;;;5118519;28;20454;-77
2021/01/02 04:30:17;;;;;;;50.23;32.57;;;2.50;99.90;;;;;;5124361;27;20460;-75
2021/01/02 04:32:48;;;;;;;47.40;32.67;;;2.60;99.90;;;;;;5125975;28;20457;-76
2021/01/02 04:35:15;;;;;;;48.60;31.70;;;2.60;99.90;;;;;;5122425;28;20468;-75
2021/01/02 04:37:42;;;;;;;42.73;32.37;;;2.60;99.90;;;;;;5115656;28;20469;-76
2021/01/02 04:40:13;;;;;;;48.10;33.30;;;2.60;99.90;;;;;;5121543;28;20476;-73
2021/01/02 04:42:41;;;;;;;42.83;29.97;;;2.60;99.90;;;;;;5119448;27;20468;-76
2021/01/02 04:45:10;;;;;;;48.07;33.70;;;2.60;99.90;;;;;;5116407;27;20465;-75
2021/01/02 04:47:37;;;;;;;54.17;32.53;;;2.60;99.90;;;;;;5126270;27;20473;-73
2021/01/02 04:50:06;;;;;;;47.23;32.23;;;2.60;99.90;;;;;;5127116;27;20487;-75
2021/01/02 04:52:33;;;;;;;43.23;31.97;;;2.60;99.90;;;;;;5123915;27;20505;-74
2021/01/02 04:55:03;;;;;;;49.90;31.83;;;2.60;99.90;;;;;;5123524;27;20508;-74
2021/01/02 04:57:33;;;;;;;43.53;32.47;;;2.60;99.90;;;;;;5126731;27;20544;-75
2021/01/02 05:00:01;;;;;;;49.23;32.70;;;2.70;99.90;;;;;;5126070;27;20460;-74
2021/01/02 05:02:30;;;;;;;54.57;32.93;;;2.60;99.90;;;;;;5123576;27;20483;-75
2021/01/02 05:04:57;;;;;;;46.97;33.03;;;2.60;99.90;;;;;;5117437;27;20548;-75
2021/01/02 05:07:25;;;;;;;48.10;34.10;;;2.50;99.90;;;;;;5116967;27;20467;-73
2021/01/02 05:09:51;;;;;;;51.70;33.30;;;2.60;99.90;;;;;;5122096;27;20515;-76
2021/01/02 05:12:30;;;;;;;56.30;34.37;;;2.60;99.90;;;;;;5124804;27;20474;-73
2021/01/02 05:15:04;;;;;;;46.83;32.40;;;2.50;99.90;;;;;;5125902;27;20456;-74
2021/01/02 05:17:31;;;;;;;47.43;32.27;;;2.60;99.90;;;;;;5117894;27;20804;-76
2021/01/02 05:20:17;;;;;;;47.37;30.77;;;2.60;99.90;;;;;;5115355;27;20808;-75
2021/01/02 05:22:44;;;;;;;48.00;32.10;;;2.60;99.90;;;;;;5126939;27;20487;-74
2021/01/02 05:25:14;;;;;;;47.17;30.20;;;2.70;99.90;;;;;;5126841;27;20459;-76
2021/01/02 05:27:43;;;;;;;47.60;33.87;;;2.60;99.90;;;;;;5121132;27;20467;-75
2021/01/02 05:30:20;;;;;;;49.47;32.93;;;2.60;99.90;;;;;;5120417;27;20517;-75
2021/01/02 05:33:05;;;;;;;49.13;32.80;;;2.60;99.90;;;;;;5124889;27;20532;-72
2021/01/02 05:35:35;;;;;;;45.73;32.23;;;2.70;99.90;;;;;;5122540;27;20471;-74
2021/01/02 05:38:12;;;;;;;53.83;34.80;;;2.70;99.90;;;;;;5124261;27;20457;-76
2021/01/02 05:40:42;;;;;;;43.27;32.93;;;2.80;99.90;;;;;;5128261;27;20490;-75
2021/01/02 05:43:09;;;;;;;49.43;33.50;;;2.90;99.90;;;;;;5124824;27;20456;-78
2021/01/02 05:45:36;;;;;;;43.70;32.97;;;2.80;99.90;;;;;;5126781;27;20539;-76
2021/01/02 05:48:18;;;;;;;52.57;33.70;;;2.80;99.90;;;;;;5124914;27;20533;-75
2021/01/02 05:50:46;;;;;;;45.00;31.70;;;2.90;99.90;;;;;;5124618;27;20481;-77
2021/01/02 05:53:20;;;;;;;45.10;31.87;;;2.70;99.90;;;;;;5125960;27;20975;-76
2021/01/02 05:55:48;;;;;;;49.50;33.03;;;2.80;99.90;;;;;;5125483;27;21061;-77
2021/01/02 05:58:18;;;;;;;45.70;33.17;;;2.80;99.90;;;;;;5127878;27;20876;-76
2021/01/02 06:00:46;;;;;;;42.43;32.33;;;2.80;99.90;;;;;;5126704;27;21012;-76
2021/01/02 06:03:24;;;;;;;41.57;31.87;;;2.80;99.90;;;;;;5121777;27;20803;-76
2021/01/02 06:05:58;;;;;;;47.80;31.37;;;2.70;99.90;;;;;;5119998;27;20880;-75
2021/01/02 06:08:30;;;;;;;50.53;31.30;;;2.70;99.90;;;;;;5120390;27;20488;-76
2021/01/02 06:11:00;;;;;;;48.20;31.60;;;2.80;99.90;;;;;;5126104;27;20547;-76
2021/01/02 06:13:29;;;;;;;31.67;26.70;;;2.80;99.90;;;;;;5128973;27;20460;-76
2021/01/02 06:15:59;;;;;;;47.33;29.50;;;2.70;99.90;;;;;;5125641;27;20460;-77
2021/01/02 06:18:29;;;;;;;48.40;31.80;;;2.60;99.90;;;;;;5122412;27;20461;-77
2021/01/02 06:20:57;;;;;;;46.53;31.50;;;2.60;99.90;;;;;;5124331;27;20513;-76
2021/01/02 06:23:26;;;;;;;53.63;35.20;;;2.60;99.90;;;;;;5119013;27;20841;-78
2021/01/02 06:25:54;;;;;;;48.00;32.50;;;2.50;99.90;;;;;;5128115;27;21010;-76
2021/01/02 06:28:21;;;;;;;47.47;31.87;;;2.40;99.90;;;;;;5127501;27;20836;-77
2021/01/02 06:30:48;;;;;;;54.50;32.20;;;2.40;99.90;;;;;;5121270;27;20461;-76
2021/01/02 06:33:16;;;;;;;49.10;31.30;;;2.50;99.90;;;;;;5122099;27;20932;-76
2021/01/02 06:35:44;;;;;;;51.13;32.33;;;2.60;99.90;;;;;;5127661;27;20453;-76
2021/01/02 06:38:13;;;;;;;51.30;32.50;;;2.70;99.90;;;;;;5122417;27;20484;-76
2021/01/02 06:40:46;;;;;;;49.73;29.93;;;2.60;99.90;;;;;;5117424;27;20479;-76
2021/01/02 06:43:14;;;;;;;51.60;31.00;;;2.60;99.90;;;;;;5121739;27;20462;-78
2021/01/02 06:45:51;;;;;;;41.33;29.60;;;2.70;99.90;;;;;;5125877;27;21279;-75
2021/01/02 06:48:38;;;;;;;43.53;31.63;;;2.70;99.90;;;;;;5126170;27;20480;-75
2021/01/02 06:51:31;;;;;;;43.20;31.10;;;2.60;99.90;;;;;;5115847;27;20464;-76
2021/01/02 06:54:03;;;;;;;46.10;31.07;;;2.70;99.90;;;;;;5122529;27;20531;-77
2021/01/02 06:56:32;;;;;;;50.07;32.27;;;2.50;99.90;;;;;;5125776;27;20537;-77
2021/01/02 06:58:59;;;;;;;48.97;32.30;;;2.60;99.90;;;;;;5123824;27;20501;-76
2021/01/02 07:01:41;;;;;;;44.47;31.17;;;2.60;99.90;;;;;;5121340;27;20468;-75
2021/01/02 07:04:10;;;;;;;43.80;30.87;;;2.60;99.90;;;;;;5124905;27;20464;-76
2021/01/02 07:06:44;;;;;;;50.70;31.90;;;2.70;99.90;;;;;;5123555;27;20862;-76
2021/01/02 07:09:24;;;;;;;41.33;29.23;;;2.70;99.90;;;;;;5123111;27;20498;-76
2021/01/02 07:11:52;;;;;;;49.87;30.27;;;2.80;99.90;;;;;;5127346;27;20448;-76
2021/01/02 07:14:26;;;;;;;43.07;29.47;;;2.80;99.90;;;;;;5120722;27;20468;-75
2021/01/02 07:16:59;;;;;;;54.13;31.70;;;2.80;99.90;;;;;;5121862;27;20973;-76
2021/01/02 07:19:33;;;;;;;44.07;29.90;;;2.70;99.90;;;;;;5116764;27;20467;-77
2021/01/02 07:22:01;;;;;;;44.87;31.73;;;2.70;99.90;;;;;;5124934;27;20906;-76
2021/01/02 07:24:29;;;;;;;45.80;32.30;;;2.70;99.90;;;;;;5117963;27;20473;-76
2021/01/02 07:27:00;;;;;;;49.70;30.63;;;2.70;99.90;;;;;;5115690;27;20834;-75
2021/01/02 07:29:29;;;;;;;43.50;31.57;;;2.80;99.90;;;;;;5119707;27;20480;-78
2021/01/02 07:32:05;;;;;;;46.63;31.17;;;2.70;99.90;;;;;;5123021;27;20460;-78
2021/01/02 07:34:32;;;;;;;41.90;30.60;;;2.70;99.90;;;;;;5121528;27;20982;-76
2021/01/02 07:37:03;;;;;;;46.97;30.43;;;2.60;99.90;;;;;;5125101;27;20460;-76
2021/01/02 07:39:30;;;;;;;46.40;31.10;;;2.60;99.90;;;;;;5117928;27;20472;-76
2021/01/02 07:42:04;;;;;;;48.20;31.60;;;2.80;99.90;;;;;;5126062;27;20461;-75
2021/01/02 07:44:30;;;;;;;46.13;32.63;;;2.70;99.90;;;;;;5123080;27;20506;-77
2021/01/02 07:46:58;;;;;;;56.10;33.00;;;2.80;99.90;;;;;;5121591;27;20456;-76
2021/01/02 07:49:24;;;;;;;45.20;33.13;;;2.90;99.90;;;;;;5123531;27;20592;-77
2021/01/02 07:51:51;;;;;;;49.73;32.23;;;2.80;99.90;;;;;;5122089;27;20794;-76
2021/01/02 07:54:29;;;;;;;51.47;32.30;;;2.80;99.90;;;;;;5119185;27;20456;-77
2021/01/02 07:56:56;;;;;;;53.37;34.60;;;2.90;99.90;;;;;;5123281;27;20464;-77
2021/01/02 07:59:28;;;;;;;49.00;34.00;;;2.90;99.90;;;;;;5120859;27;20453;-77
2021/01/02 08:01:56;;;;;;;54.40;35.03;;;2.90;99.90;;;;;;5121889;27;20456;-77
2021/01/02 08:04:24;;;;;;;53.03;35.97;;;2.80;99.90;;;;;;5119277;27;20457;-77
2021/01/02 08:06:53;;;;;;;59.87;38.57;;;2.80;99.90;;;;;;5123699;27;20497;-76
2021/01/02 08:09:21;;;;;;;54.60;35.57;;;2.80;99.90;;;;;;5122816;27;20484;-75
2021/01/02 08:11:49;;;;;;;45.47;32.70;;;2.90;99.90;;;;;;5120099;27;20467;-78
2021/01/02 08:14:15;;;;;;;43.80;29.43;;;3.00;99.90;;;;;;5123032;27;20982;-75
2021/01/02 08:16:51;;;;;;;52.97;35.13;;;2.90;99.90;;;;;;5124238;27;20464;-78
2021/01/02 08:19:17;;;;;;;59.33;33.37;;;3.00;99.90;;;;;;5116239;27;20461;-76
2021/01/02 08:21:45;;;;;;;54.43;35.10;;;3.00;99.90;;;;;;5126982;27;20465;-77
2021/01/02 08:24:13;;;;;;;48.10;32.70;;;3.00;99.90;;;;;;5125398;27;20467;-77
2021/01/02 08:26:39;;;;;;;39.93;30.47;;;3.10;99.90;;;;;;5120209;28;20456;-77
2021/01/02 08:29:06;;;;;;;48.30;33.23;;;3.10;99.90;;;;;;5117972;28;20841;-76
2021/01/02 08:31:35;;;;;;;48.50;31.27;;;3.10;99.90;;;;;;5119509;27;20460;-77
2021/01/02 08:34:05;;;;;;;43.67;32.10;;;3.20;99.90;;;;;;5119672;28;20973;-76
2021/01/02 08:36:31;;;;;;;46.17;32.70;;;3.20;99.90;;;;;;5123439;28;20492;-75
2021/01/02 08:39:00;;;;;;;47.97;31.83;;;3.20;99.90;;;;;;5122023;28;20468;-76
2021/01/02 08:41:28;;;;;;;43.43;33.20;;;3.20;99.90;;;;;;5120964;28;20477;-77
2021/01/02 08:43:56;;;;;;;54.23;33.37;;;3.20;99.90;;;;;;5119698;28;20808;-77
2021/01/02 08:46:24;;;;;;;46.10;33.37;;;3.30;99.90;;;;;;5120921;27;20468;-76
2021/01/02 08:48:51;;;;;;;39.83;31.20;;;3.40;99.90;;;;;;5123783;28;20841;-77
2021/01/02 08:51:22;;;;;;;44.33;30.63;;;3.50;99.90;;;;;;5126893;28;20467;-76
2021/01/02 08:53:48;;;;;;;40.53;31.40;;;3.60;99.90;;;;;;5122183;28;20460;-75
2021/01/02 08:56:23;;;;;;;41.83;29.10;;;3.60;99.90;;;;;;5120922;28;20457;-76
2021/01/02 08:58:50;;;;;;;42.00;29.43;;;3.60;99.90;;;;;;5124384;28;20456;-77
2021/01/02 09:01:17;;;;;;;43.80;30.67;;;3.60;99.90;;;;;;5130874;27;20449;-76
2021/01/02 09:03:44;;;;;;;38.03;29.27;;;3.60;99.90;;;;;;5120688;28;20485;-75
2021/01/02 09:06:17;;;;;;;42.70;29.30;;;3.60;99.90;;;;;;5120180;28;20456;-75
2021/01/02 09:08:45;;;;;;;40.20;30.60;;;3.60;99.90;;;;;;5120366;28;20538;-77
2021/01/02 09:11:11;;;;;;;40.00;29.87;;;3.60;99.90;;;;;;5122745;28;20561;-77
2021/01/02 09:13:39;;;;;;;39.53;29.57;;;3.50;99.90;;;;;;5123087;28;20468;-76
2021/01/02 09:16:15;;;;;;;48.93;31.43;;;3.60;99.90;;;;;;5125673;27;20480;-76
2021/01/02 09:18:43;;;;;;;43.07;30.40;;;3.80;99.90;;;;;;5125451;28;20487;-76
2021/01/02 09:21:21;;;;;;;38.30;28.70;;;3.80;99.90;;;;;;5125212;28;20452;-75
2021/01/02 09:23:49;;;;;;;39.07;29.00;;;3.90;99.90;;;;;;5116948;28;21037;-77
2021/01/02 09:26:27;;;;;;;38.67;29.27;;;3.80;99.90;;;;;;5120844;28;20503;-76
2021/01/02 09:28:55;;;;;;;46.77;33.20;;;3.90;99.90;;;;;;5123442;27;20488;-75
2021/01/02 09:31:23;;;;;;;43.40;32.93;;;4.00;99.90;;;;;;5128505;27;20452;-76
2021/01/02 09:33:50;;;;;;;46.80;34.10;;;4.00;99.90;;;;;;5125636;27;20463;-77
2021/01/02 09:36:17;;;;;;;43.80;29.80;;;4.00;99.90;;;;;;5120333;27;20460;-74
2021/01/02 09:38:44;;;;;;;42.00;29.87;;;4.00;99.90;;;;;;5121535;27;20457;-77
2021/01/02 09:41:14;;;;;;;47.00;30.43;;;3.90;99.90;;;;;;5121671;27;20477;-75
2021/01/02 09:43:41;;;;;;;43.87;30.93;;;4.00;99.90;;;;;;5122398;27;20463;-76
2021/01/02 09:46:12;;;;;;;35.93;27.30;;;3.90;99.90;;;;;;5117733;27;20460;-77
2021/01/02 09:48:41;;;;;;;45.60;29.83;;;4.00;99.90;;;;;;5124600;27;20480;-76
2021/01/02 09:51:07;;;;;;;41.63;30.13;;;4.10;99.90;;;;;;5124192;27;20544;-77
2021/01/02 09:53:36;;;;;;;40.50;29.07;;;4.10;99.90;;;;;;5124002;27;20452;-75
2021/01/02 09:56:03;;;;;;;39.30;29.77;;;4.10;99.90;;;;;;5121213;27;20807;-77
2021/01/02 09:58:32;;;;;;;39.77;28.40;;;4.20;99.90;;;;;;5123992;27;20832;-75
2021/01/02 10:00:59;;;;;;;42.83;28.17;;;4.40;99.90;;;;;;5131287;27;20449;-77
2021/01/02 10:03:26;;;;;;;42.13;27.93;;;4.40;99.90;;;;;;5123768;27;20470;-76
2021/01/02 10:05:52;;;;;;;42.90;30.27;;;4.30;99.90;;;;;;5119426;27;20460;-75
2021/01/02 10:08:19;;;;;;;37.43;26.83;;;4.40;99.90;;;;;;5120424;27;20963;-75
2021/01/02 10:10:45;;;;;;;44.63;29.40;;;4.50;99.90;;;;;;5119270;27;20464;-77
2021/01/02 10:13:12;;;;;;;44.07;28.90;;;4.60;99.90;;;;;;5118991;27;20457;-77
2021/01/02 10:15:40;;;;;;;41.00;28.77;;;4.60;99.90;;;;;;5121511;27;20495;-76
2021/01/02 10:18:06;;;;;;;44.93;29.40;;;4.60;99.90;;;;;;5124813;27;20457;-77
2021/01/02 10:20:32;;;;;;;41.63;29.27;;;4.50;99.90;;;;;;5116480;27;20464;-76
2021/01/02 10:22:59;;;;;;;42.27;29.63;;;4.40;99.90;;;;;;5120899;27;20869;-75
2021/01/02 10:25:26;;;;;;;44.20;29.83;;;4.30;99.90;;;;;;5120056;27;20460;-76
2021/01/02 10:27:54;;;;;;;49.63;32.13;;;4.40;99.90;;;;;;5119696;27;20453;-76
2021/01/02 10:30:21;;;;;;;41.47;26.83;;;4.50;99.90;;;;;;5122075;27;21006;-76
2021/01/02 10:32:48;;;;;;;46.97;29.90;;;4.50;99.90;;;;;;5121363;27;20464;-75
2021/01/02 10:35:16;;;;;;;47.23;30.27;;;4.50;99.90;;;;;;5113642;27;20461;-77
2021/01/02 10:37:43;;;;;;;47.90;30.00;;;4.50;99.90;;;;;;5122494;27;21058;-76
2021/01/02 10:40:12;;;;;;;58.50;31.90;;;4.30;99.90;;;;;;5121408;27;21010;-76
2021/01/02 10:42:40;;;;;;;48.73;31.90;;;4.20;99.90;;;;;;5118266;27;20480;-76
2021/01/02 10:45:09;;;;;;;53.50;33.60;;;4.20;99.90;;;;;;5118050;27;20448;-75
2021/01/02 10:47:35;;;;;;;52.47;35.30;;;4.30;99.90;;;;;;5117115;27;20503;-75
2021/01/02 10:50:03;;;;;;;51.77;34.37;;;4.10;99.90;;;;;;5116193;27;20906;-78
2021/01/02 10:52:30;;;;;;;57.20;34.50;;;4.10;99.90;;;;;;5117147;27;20460;-76
2021/01/02 10:54:57;;;;;;;55.87;37.27;;;4.00;99.90;;;;;;5123064;27;20452;-79
2021/01/02 10:57:24;;;;;;;48.67;34.77;;;3.90;99.90;;;;;;5129306;27;21251;-77
2021/01/02 10:59:52;;;;;;;63.53;38.50;;;3.90;99.90;;;;;;5119030;27;20457;-79
2021/01/02 11:02:20;;;;;;;56.50;37.73;;;4.00;99.90;;;;;;5119375;27;20872;-76
2021/01/02 11:04:47;;;;;;;58.93;37.90;;;4.00;99.90;;;;;;5118978;27;20465;-79
2021/01/02 11:07:14;;;;;;;54.17;36.27;;;4.10;99.90;;;;;;5117093;27;20982;-75
2021/01/02 11:09:43;;;;;;;57.10;38.00;;;4.10;99.90;;;;;;5117497;27;21056;-78
2021/01/02 11:12:11;;;;;;;53.53;35.23;;;3.90;99.90;;;;;;5120865;27;20471;-81
2021/01/02 11:14:40;;;;;;;55.30;35.37;;;3.90;99.90;;;;;;5119109;27;20462;-80
2021/01/02 11:17:08;;;;;;;52.13;35.83;;;3.80;99.90;;;;;;5125511;27;20472;-82
2021/01/02 11:19:35;;;;;;;53.30;37.53;;;3.80;99.90;;;;;;5120168;27;20506;-80
2021/01/02 11:22:03;;;;;;;57.43;36.50;;;3.70;99.90;;;;;;5126945;27;20819;-75
2021/01/02 11:24:32;;;;;;;58.00;36.17;;;3.90;99.90;;;;;;5121319;27;20467;-79
2021/01/02 11:27:01;;;;;;;56.13;36.23;;;3.90;99.90;;;;;;5119424;27;20967;-79
2021/01/02 11:29:29;;;;;;;53.37;35.20;;;4.00;99.90;;;;;;5121999;27;20521;-78
2021/01/02 11:31:56;;;;;;;57.60;37.63;;;4.00;99.90;;;;;;5118306;27;20466;-77
2021/01/02 11:34:24;;;;;;;66.20;38.67;;;4.00;99.90;;;;;;5122627;27;20499;-77
2021/01/02 11:36:52;;;;;;;58.13;38.23;;;4.00;99.90;;;;;;5126872;27;20485;-78
2021/01/02 11:39:19;;;;;;;51.00;35.43;;;4.20;99.90;;;;;;5123738;27;20471;-79
2021/01/02 11:41:48;;;;;;;57.13;37.73;;;4.20;99.90;;;;;;5118783;27;20456;-76
2021/01/02 11:44:17;;;;;;;55.83;38.10;;;4.40;99.90;;;;;;5121668;27;20489;-74
2021/01/02 11:46:46;;;;;;;59.13;36.77;;;4.50;99.90;;;;;;5123209;27;20878;-78
2021/01/02 11:49:16;;;;;;;58.60;39.23;;;4.50;99.90;;;;;;5114170;27;20492;-78
2021/01/02 11:51:46;;;;;;;58.03;38.70;;;4.50;99.90;;;;;;5123572;27;20481;-76
2021/01/02 11:54:12;;;;;;;53.87;37.37;;;4.40;99.90;;;;;;5119514;27;20463;-78
2021/01/02 11:56:40;;;;;;;68.83;39.40;;;4.60;99.90;;;;;;5119169;27;20463;-78
2021/01/02 11:59:07;;;;;;;63.27;40.73;;;4.60;99.90;;;;;;5118959;27;20858;-78
2021/01/02 12:01:37;;;;;;;62.30;39.10;;;4.40;99.90;;;;;;5117401;27;21119;-77
2021/01/02 12:04:07;;;;;;;76.50;41.47;;;4.40;99.90;;;;;;5122443;27;20461;-76
2021/01/02 12:06:35;;;;;;;63.87;38.73;;;4.40;99.90;;;;;;5118044;27;21084;-77
2021/01/02 12:09:02;;;;;;;79.93;41.33;;;4.30;99.90;;;;;;5116160;27;20495;-77
2021/01/02 12:11:30;;;;;;;76.17;42.73;;;4.20;99.90;;;;;;5121142;27;20464;-76
2021/01/02 12:13:57;;;;;;;74.77;41.67;;;4.00;99.90;;;;;;5123918;27;20460;-78
2021/01/02 12:16:31;;;;;;;75.10;40.53;;;4.10;99.90;;;;;;5126873;27;20478;-75
2021/01/02 12:18:57;;;;;;;86.07;41.40;;;4.20;99.90;;;;;;5118966;27;20470;-76
2021/01/02 12:21:24;;;;;;;77.67;39.47;;;4.30;99.90;;;;;;5122839;27;20515;-78
2021/01/02 12:23:50;;;;;;;70.37;40.60;;;4.20;99.90;;;;;;5121725;27;20456;-77
2021/01/02 12:26:17;;;;;;;75.53;40.40;;;4.20;99.90;;;;;;5119825;27;20456;-76
2021/01/02 12:28:47;;;;;;;76.57;38.87;;;4.20;99.90;;;;;;5121260;28;20959;-76
2021/01/02 12:31:16;;;;;;;71.30;40.70;;;4.20;99.90;;;;;;5121361;27;20460;-76
2021/01/02 12:33:46;;;;;;;70.77;39.17;;;4.10;99.90;;;;;;5125473;28;20819;-75
2021/01/02 12:36:14;;;;;;;82.83;39.30;;;4.20;99.90;;;;;;5119576;28;20471;-77
2021/01/02 12:38:41;;;;;;;70.23;39.57;;;4.30;99.90;;;;;;5123295;28;20950;-79
2021/01/02 12:41:13;;;;;;;73.33;37.20;;;4.20;99.90;;;;;;5119565;28;20479;-77
2021/01/02 12:43:40;;;;;;;67.77;37.17;;;4.20;99.90;;;;;;5111304;28;20474;-77
2021/01/02 12:46:08;;;;;;;85.13;41.90;;;4.10;99.90;;;;;;5122608;27;20465;-77
2021/01/02 12:48:34;;;;;;;82.90;37.30;;;4.20;99.90;;;;;;5123844;28;20455;-79
2021/01/02 12:51:01;;;;;;;76.83;38.13;;;4.20;99.90;;;;;;5118631;28;20465;-77
2021/01/02 12:53:28;;;;;;;67.90;37.13;;;4.20;99.90;;;;;;5121958;28;20460;-78